Terminal Aerodrome Forecast
Issued by NWS Wilmington, OH

Current Version | Previous Version | Graphics & Text | Print | Product List | Glossary On
Versions: 1 2 3 4 5 6 7 8 9 10 11 12 13 14 15 16 17 18 19 20 21 22 23 24 25 26 27 28
526
FTUS41 KILN 160909 AAB
TAFCVG
TAF AMD
KCVG 160909Z 1609/1712 26010KT P6SM SCT015
     FM161000 28010G19KT P6SM BKN015
     FM161200 28010KT P6SM BKN015
     FM161500 30008KT P6SM BKN025
     FM162100 32008KT P6SM SCT025 BKN250
     FM170100 VRB03KT P6SM SCT250=

USA.gov is the U.S. government's official web portal to all federal, state and local government web resources and services.